sensor_id;sensor_type;location;lat;lon;timestamp;pressure;altitude;pressure_sealevel;temperature;humidity
7441;BME280;29616;51.950;8.572;2023-02-26T00:02:09;100017.25;;;-0.79;100.00
7441;BME280;29616;51.950;8.572;2023-02-26T00:04:38;100039.44;;;-0.75;100.00
7441;BME280;29616;51.950;8.572;2023-02-26T00:07:06;100036.59;;;-0.72;100.00
7441;BME280;29616;51.950;8.572;2023-02-26T00:09:36;100041.53;;;-0.65;100.00
7441;BME280;29616;51.950;8.572;2023-02-26T00:12:06;100043.97;;;-0.60;100.00
7441;BME280;29616;51.950;8.572;2023-02-26T00:14:34;100043.34;;;-0.65;100.00
7441;BME280;29616;51.950;8.572;2023-02-26T00:17:34;100049.66;;;-0.66;100.00
7441;BME280;29616;51.950;8.572;2023-02-26T00:20:05;100047.97;;;-0.84;100.00
7441;BME280;29616;51.950;8.572;2023-02-26T00:22:36;100033.34;;;-0.79;100.00
7441;BME280;29616;51.950;8.572;2023-02-26T00:25:05;100061.84;;;-0.76;100.00
7441;BME280;29616;51.950;8.572;2023-02-26T00:27:35;100056.00;;;-0.67;100.00
7441;BME280;29616;51.950;8.572;2023-02-26T00:30:07;100037.06;;;-0.81;100.00
7441;BME280;29616;51.950;8.572;2023-02-26T00:32:39;100067.66;;;-0.68;100.00
7441;BME280;29616;51.950;8.572;2023-02-26T00:35:10;100073.75;;;-0.65;100.00
7441;BME280;29616;51.950;8.572;2023-02-26T00:37:52;100056.63;;;-0.79;100.00
7441;BME280;29616;51.950;8.572;2023-02-26T00:40:24;100071.94;;;-0.64;100.00
7441;BME280;29616;51.950;8.572;2023-02-26T00:43:00;100073.03;;;-0.68;100.00
7441;BME280;29616;51.950;8.572;2023-02-26T00:45:29;100081.19;;;-0.70;100.00
7441;BME280;29616;51.950;8.572;2023-02-26T00:48:13;100065.56;;;-0.79;100.00
7441;BME280;29616;51.950;8.572;2023-02-26T00:50:47;100075.19;;;-0.75;100.00
7441;BME280;29616;51.950;8.572;2023-02-26T00:53:26;100072.22;;;-0.86;100.00
7441;BME280;29616;51.950;8.572;2023-02-26T00:55:55;100091.38;;;-0.76;100.00
7441;BME280;29616;51.950;8.572;2023-02-26T00:58:26;100094.50;;;-0.68;100.00
7441;BME280;29616;51.950;8.572;2023-02-26T01:00:55;100101.78;;;-0.70;100.00
7441;BME280;29616;51.950;8.572;2023-02-26T01:03:26;100081.75;;;-0.80;100.00
7441;BME280;29616;51.950;8.572;2023-02-26T01:05:54;100108.84;;;-0.52;100.00
7441;BME280;29616;51.950;8.572;2023-02-26T01:08:25;100082.25;;;-0.56;100.00
7441;BME280;29616;51.950;8.572;2023-02-26T01:10:56;100112.41;;;-0.36;100.00
7441;BME280;29616;51.950;8.572;2023-02-26T01:13:24;100107.22;;;-0.23;100.00
7441;BME280;29616;51.950;8.572;2023-02-26T01:15:56;100118.50;;;-0.17;100.00
7441;BME280;29616;51.950;8.572;2023-02-26T01:18:30;100095.44;;;-0.21;100.00
7441;BME280;29616;51.950;8.572;2023-02-26T01:21:03;100118.34;;;-0.14;100.00
7441;BME280;29616;51.950;8.572;2023-02-26T01:23:34;100118.94;;;-0.09;100.00
7441;BME280;29616;51.950;8.572;2023-02-26T01:26:09;100125.09;;;-0.07;100.00
7441;BME280;29616;51.950;8.572;2023-02-26T01:28:42;100122.31;;;-0.05;100.00
7441;BME280;29616;51.950;8.572;2023-02-26T01:31:15;100118.16;;;-0.11;100.00
7441;BME280;29616;51.950;8.572;2023-02-26T01:33:48;100114.94;;;-0.17;100.00
7441;BME280;29616;51.950;8.572;2023-02-26T01:36:20;100114.25;;;-0.21;100.00
7441;BME280;29616;51.950;8.572;2023-02-26T01:38:51;100126.31;;;-0.12;100.00
7441;BME280;29616;51.950;8.572;2023-02-26T01:41:28;100126.56;;;-0.17;100.00
7441;BME280;29616;51.950;8.572;2023-02-26T01:44:09;100127.25;;;-0.13;100.00
7441;BME280;29616;51.950;8.572;2023-02-26T01:46:55;100125.97;;;-0.22;100.00
7441;BME280;29616;51.950;8.572;2023-02-26T01:49:30;100121.09;;;-0.31;100.00
7441;BME280;29616;51.950;8.572;2023-02-26T01:52:01;100127.59;;;-0.35;100.00
7441;BME280;29616;51.950;8.572;2023-02-26T01:54:34;100132.25;;;-0.38;100.00
7441;BME280;29616;51.950;8.572;2023-02-26T01:57:04;100131.38;;;-0.39;100.00
7441;BME280;29616;51.950;8.572;2023-02-26T01:59:38;100123.59;;;-0.43;100.00
7441;BME280;29616;51.950;8.572;2023-02-26T02:02:10;100107.09;;;-0.53;100.00
7441;BME280;29616;51.950;8.572;2023-02-26T02:04:42;100117.75;;;-0.51;100.00
7441;BME280;29616;51.950;8.572;2023-02-26T02:07:11;100131.34;;;-0.54;100.00
7441;BME280;29616;51.950;8.572;2023-02-26T02:09:40;100117.31;;;-0.77;100.00
7441;BME280;29616;51.950;8.572;2023-02-26T02:12:17;100135.53;;;-0.66;100.00
7441;BME280;29616;51.950;8.572;2023-02-26T02:14:55;100147.81;;;-0.78;100.00
7441;BME280;29616;51.950;8.572;2023-02-26T02:17:34;100131.00;;;-0.81;100.00
7441;BME280;29616;51.950;8.572;2023-02-26T02:20:28;100148.84;;;-0.80;100.00
7441;BME280;29616;51.950;8.572;2023-02-26T02:23:09;100147.88;;;-0.79;100.00
7441;BME280;29616;51.950;8.572;2023-02-26T02:26:08;100154.44;;;-0.85;100.00
7441;BME280;29616;51.950;8.572;2023-02-26T02:28:48;100159.28;;;-0.91;100.00
7441;BME280;29616;51.950;8.572;2023-02-26T02:31:23;100153.44;;;-0.99;100.00
7441;BME280;29616;51.950;8.572;2023-02-26T02:33:57;100154.22;;;-1.14;100.00
7441;BME280;29616;51.950;8.572;2023-02-26T02:36:33;100150.44;;;-1.10;100.00
7441;BME280;29616;51.950;8.572;2023-02-26T02:39:06;100163.69;;;-1.07;100.00
7441;BME280;29616;51.950;8.572;2023-02-26T02:41:41;100165.81;;;-1.14;100.00
7441;BME280;29616;51.950;8.572;2023-02-26T02:44:16;100173.78;;;-1.12;100.00
7441;BME280;29616;51.950;8.572;2023-02-26T02:46:47;100175.22;;;-1.23;100.00
7441;BME280;29616;51.950;8.572;2023-02-26T02:49:20;100180.63;;;-1.24;100.00
7441;BME280;29616;51.950;8.572;2023-02-26T02:51:53;100189.41;;;-1.20;100.00
7441;BME280;29616;51.950;8.572;2023-02-26T02:54:32;100196.66;;;-1.23;100.00
7441;BME280;29616;51.950;8.572;2023-02-26T02:57:03;100199.16;;;-1.19;100.00
7441;BME280;29616;51.950;8.572;2023-02-26T02:59:40;100180.38;;;-1.37;100.00
7441;BME280;29616;51.950;8.572;2023-02-26T03:02:12;100198.78;;;-1.29;100.00
7441;BME280;29616;51.950;8.572;2023-02-26T03:04:44;100201.34;;;-1.28;100.00
7441;BME280;29616;51.950;8.572;2023-02-26T03:07:13;100192.81;;;-1.36;100.00
7441;BME280;29616;51.950;8.572;2023-02-26T03:09:43;100198.03;;;-1.33;100.00
7441;BME280;29616;51.950;8.572;2023-02-26T03:12:11;100206.09;;;-1.33;100.00
7441;BME280;29616;51.950;8.572;2023-02-26T03:14:43;100205.00;;;-1.29;100.00
7441;BME280;29616;51.950;8.572;2023-02-26T03:17:19;100211.50;;;-1.15;100.00
7441;BME280;29616;51.950;8.572;2023-02-26T03:20:02;100188.44;;;-1.19;100.00
7441;BME280;29616;51.950;8.572;2023-02-26T03:22:39;100208.13;;;-1.02;100.00
7441;BME280;29616;51.950;8.572;2023-02-26T03:25:15;100208.66;;;-0.95;100.00
7441;BME280;29616;51.950;8.572;2023-02-26T03:27:48;100220.34;;;-0.96;100.00
7441;BME280;29616;51.950;8.572;2023-02-26T03:30:24;100213.97;;;-0.94;100.00
7441;BME280;29616;51.950;8.572;2023-02-26T03:32:57;100220.03;;;-0.90;100.00
7441;BME280;29616;51.950;8.572;2023-02-26T03:35:30;100228.50;;;-0.81;100.00
7441;BME280;29616;51.950;8.572;2023-02-26T03:38:03;100226.50;;;-0.77;100.00
7441;BME280;29616;51.950;8.572;2023-02-26T03:40:35;100229.50;;;-0.83;100.00
7441;BME280;29616;51.950;8.572;2023-02-26T03:43:06;100234.72;;;-0.80;100.00
7441;BME280;29616;51.950;8.572;2023-02-26T03:45:38;100221.84;;;-0.91;100.00
7441;BME280;29616;51.950;8.572;2023-02-26T03:48:11;100244.09;;;-0.89;100.00
7441;BME280;29616;51.950;8.572;2023-02-26T03:50:43;100245.47;;;-0.80;100.00
7441;BME280;29616;51.950;8.572;2023-02-26T03:53:22;100247.41;;;-0.84;100.00
7441;BME280;29616;51.950;8.572;2023-02-26T03:55:58;100250.88;;;-0.82;100.00
7441;BME280;29616;51.950;8.572;2023-02-26T03:58:53;100268.09;;;-0.86;100.00
7441;BME280;29616;51.950;8.572;2023-02-26T04:01:52;100253.63;;;-1.00;100.00
7441;BME280;29616;51.950;8.572;2023-02-26T04:04:27;100255.53;;;-1.02;100.00
7441;BME280;29616;51.950;8.572;2023-02-26T04:06:59;100274.50;;;-0.88;100.00
7441;BME280;29616;51.950;8.572;2023-02-26T04:09:30;100276.06;;;-1.01;100.00
7441;BME280;29616;51.950;8.572;2023-02-26T04:11:59;100291.03;;;-0.97;100.00
7441;BME280;29616;51.950;8.572;2023-02-26T04:14:28;100298.47;;;-1.02;100.00
7441;BME280;29616;51.950;8.572;2023-02-26T04:16:58;100299.53;;;-1.06;100.00
7441;BME280;29616;51.950;8.572;2023-02-26T04:19:28;100311.22;;;-1.07;100.00
7441;BME280;29616;51.950;8.572;2023-02-26T04:21:58;100309.19;;;-1.02;100.00
7441;BME280;29616;51.950;8.572;2023-02-26T04:24:27;100311.00;;;-1.03;100.00
7441;BME280;29616;51.950;8.572;2023-02-26T04:26:59;100319.34;;;-1.09;100.00
7441;BME280;29616;51.950;8.572;2023-02-26T04:29:30;100314.84;;;-1.08;100.00
7441;BME280;29616;51.950;8.572;2023-02-26T04:32:00;100317.91;;;-1.16;100.00
7441;BME280;29616;51.950;8.572;2023-02-26T04:34:32;100322.97;;;-1.10;100.00
7441;BME280;29616;51.950;8.572;2023-02-26T04:37:02;100321.53;;;-1.17;100.00
7441;BME280;29616;51.950;8.572;2023-02-26T04:39:32;100325.16;;;-1.18;100.00
7441;BME280;29616;51.950;8.572;2023-02-26T04:42:00;100315.44;;;-1.20;100.00
7441;BME280;29616;51.950;8.572;2023-02-26T04:44:32;100334.28;;;-1.22;100.00
7441;BME280;29616;51.950;8.572;2023-02-26T04:47:01;100335.94;;;-1.19;100.00
7441;BME280;29616;51.950;8.572;2023-02-26T04:49:33;100343.22;;;-1.22;100.00
7441;BME280;29616;51.950;8.572;2023-02-26T04:52:02;100337.34;;;-1.30;100.00
7441;BME280;29616;51.950;8.572;2023-02-26T04:54:32;100333.28;;;-1.38;100.00
7441;BME280;29616;51.950;8.572;2023-02-26T04:57:01;100336.19;;;-1.43;100.00
7441;BME280;29616;51.950;8.572;2023-02-26T04:59:31;100340.97;;;-1.31;100.00
7441;BME280;29616;51.950;8.572;2023-02-26T05:01:59;100320.47;;;-1.50;100.00
7441;BME280;29616;51.950;8.572;2023-02-26T05:04:28;100354.16;;;-1.26;100.00
7441;BME280;29616;51.950;8.572;2023-02-26T05:07:01;100356.56;;;-1.20;100.00
7441;BME280;29616;51.950;8.572;2023-02-26T05:09:31;100363.72;;;-1.20;100.00
7441;BME280;29616;51.950;8.572;2023-02-26T05:11:59;100345.53;;;-1.33;100.00
7441;BME280;29616;51.950;8.572;2023-02-26T05:14:30;100354.38;;;-1.31;100.00
7441;BME280;29616;51.950;8.572;2023-02-26T05:16:59;100365.81;;;-1.27;100.00
7441;BME280;29616;51.950;8.572;2023-02-26T05:19:29;100372.72;;;-1.22;100.00
7441;BME280;29616;51.950;8.572;2023-02-26T05:21:59;100379.81;;;-1.20;100.00
7441;BME280;29616;51.950;8.572;2023-02-26T05:24:28;100385.97;;;-1.18;100.00
7441;BME280;29616;51.950;8.572;2023-02-26T05:26:56;100378.03;;;-1.20;100.00
7441;BME280;29616;51.950;8.572;2023-02-26T05:29:26;100393.59;;;-1.09;100.00
7441;BME280;29616;51.950;8.572;2023-02-26T05:31:56;100388.53;;;-1.15;100.00
7441;BME280;29616;51.950;8.572;2023-02-26T05:34:24;100391.56;;;-1.04;100.00
7441;BME280;29616;51.950;8.572;2023-02-26T05:36:53;100374.00;;;-1.11;100.00
7441;BME280;29616;51.950;8.572;2023-02-26T05:39:21;100389.53;;;-0.99;100.00
7441;BME280;29616;51.950;8.572;2023-02-26T05:41:52;100386.84;;;-0.99;100.00
7441;BME280;29616;51.950;8.572;2023-02-26T05:44:23;100405.34;;;-0.93;100.00
7441;BME280;29616;51.950;8.572;2023-02-26T05:46:53;100379.09;;;-1.05;100.00
7441;BME280;29616;51.950;8.572;2023-02-26T05:49:21;100384.44;;;-1.05;100.00
7441;BME280;29616;51.950;8.572;2023-02-26T05:51:49;100385.84;;;-1.15;100.00
7441;BME280;29616;51.950;8.572;2023-02-26T05:54:17;100408.53;;;-1.04;100.00
7441;BME280;29616;51.950;8.572;2023-02-26T05:56:47;100416.78;;;-1.08;100.00
7441;BME280;29616;51.950;8.572;2023-02-26T05:59:17;100413.72;;;-1.19;100.00
7441;BME280;29616;51.950;8.572;2023-02-26T06:01:47;100431.56;;;-1.18;100.00
7441;BME280;29616;51.950;8.572;2023-02-26T06:04:17;100434.16;;;-1.17;100.00
7441;BME280;29616;51.950;8.572;2023-02-26T06:06:47;100442.38;;;-1.20;100.00
7441;BME280;29616;51.950;8.572;2023-02-26T06:09:15;100452.44;;;-1.25;100.00
7441;BME280;29616;51.950;8.572;2023-02-26T06:11:44;100443.69;;;-1.29;100.00
7441;BME280;29616;51.950;8.572;2023-02-26T06:14:15;100458.28;;;-1.36;100.00
7441;BME280;29616;51.950;8.572;2023-02-26T06:16:46;100458.66;;;-1.25;100.00
7441;BME280;29616;51.950;8.572;2023-02-26T06:19:15;100460.28;;;-1.20;100.00
7441;BME280;29616;51.950;8.572;2023-02-26T06:21:43;100458.81;;;-1.28;100.00
7441;BME280;29616;51.950;8.572;2023-02-26T06:24:12;100456.44;;;-1.34;100.00
7441;BME280;29616;51.950;8.572;2023-02-26T06:26:40;100479.56;;;-1.31;100.00
7441;BME280;29616;51.950;8.572;2023-02-26T06:29:11;100475.38;;;-1.38;100.00
7441;BME280;29616;51.950;8.572;2023-02-26T06:31:39;100481.44;;;-1.33;100.00
7441;BME280;29616;51.950;8.572;2023-02-26T06:34:10;100460.59;;;-1.47;100.00
7441;BME280;29616;51.950;8.572;2023-02-26T06:36:38;100489.41;;;-1.32;100.00
7441;BME280;29616;51.950;8.572;2023-02-26T06:39:08;100497.44;;;-1.32;100.00
7441;BME280;29616;51.950;8.572;2023-02-26T06:41:41;100500.03;;;-1.30;100.00
7441;BME280;29616;51.950;8.572;2023-02-26T06:44:10;100487.41;;;-1.47;100.00
7441;BME280;29616;51.950;8.572;2023-02-26T06:46:39;100504.47;;;-1.29;100.00
7441;BME280;29616;51.950;8.572;2023-02-26T06:49:08;100505.34;;;-1.29;100.00
7441;BME280;29616;51.950;8.572;2023-02-26T06:51:38;100498.50;;;-1.36;100.00
7441;BME280;29616;51.950;8.572;2023-02-26T06:54:06;100518.63;;;-1.26;100.00
7441;BME280;29616;51.950;8.572;2023-02-26T06:56:35;100534.03;;;-1.10;100.00
7441;BME280;29616;51.950;8.572;2023-02-26T06:59:05;100521.22;;;-1.04;100.00
7441;BME280;29616;51.950;8.572;2023-02-26T07:01:33;100524.13;;;-0.90;100.00
7441;BME280;29616;51.950;8.572;2023-02-26T07:04:01;100538.50;;;-0.91;100.00
7441;BME280;29616;51.950;8.572;2023-02-26T07:06:30;100493.19;;;-0.98;100.00
7441;BME280;29616;51.950;8.572;2023-02-26T07:09:00;100531.25;;;-0.70;100.00
7441;BME280;29616;51.950;8.572;2023-02-26T07:11:30;100545.69;;;-0.54;100.00
7441;BME280;29616;51.950;8.572;2023-02-26T07:13:58;100542.69;;;-0.48;100.00
7441;BME280;29616;51.950;8.572;2023-02-26T07:16:27;100549.31;;;-0.36;100.00
7441;BME280;29616;51.950;8.572;2023-02-26T07:18:55;100545.31;;;-0.28;100.00
7441;BME280;29616;51.950;8.572;2023-02-26T07:21:23;100550.81;;;-0.12;100.00
7441;BME280;29616;51.950;8.572;2023-02-26T07:23:51;100542.72;;;0.07;100.00
7441;BME280;29616;51.950;8.572;2023-02-26T07:26:22;100550.13;;;0.19;100.00
7441;BME280;29616;51.950;8.572;2023-02-26T07:28:52;100557.13;;;0.23;100.00
7441;BME280;29616;51.950;8.572;2023-02-26T07:31:20;100545.34;;;0.25;100.00
7441;BME280;29616;51.950;8.572;2023-02-26T07:33:50;100554.78;;;0.34;100.00
7441;BME280;29616;51.950;8.572;2023-02-26T07:36:19;100567.81;;;0.76;100.00
7441;BME280;29616;51.950;8.572;2023-02-26T07:38:49;100551.13;;;0.69;100.00
7441;BME280;29616;51.950;8.572;2023-02-26T07:41:19;100546.16;;;1.11;100.00
7441;BME280;29616;51.950;8.572;2023-02-26T07:43:50;100562.41;;;1.90;100.00
7441;BME280;29616;51.950;8.572;2023-02-26T07:46:18;100567.50;;;2.71;100.00
7441;BME280;29616;51.950;8.572;2023-02-26T07:48:46;100582.63;;;3.74;100.00
7441;BME280;29616;51.950;8.572;2023-02-26T07:51:16;100579.09;;;4.93;100.00
7441;BME280;29616;51.950;8.572;2023-02-26T07:53:44;100588.16;;;4.66;100.00
7441;BME280;29616;51.950;8.572;2023-02-26T07:56:14;100602.38;;;4.82;100.00
7441;BME280;29616;51.950;8.572;2023-02-26T07:58:44;100603.78;;;4.22;100.00
7441;BME280;29616;51.950;8.572;2023-02-26T08:01:15;100606.97;;;4.55;100.00
7441;BME280;29616;51.950;8.572;2023-02-26T08:03:43;100594.47;;;4.79;100.00
7441;BME280;29616;51.950;8.572;2023-02-26T08:06:11;100628.88;;;4.92;100.00
7441;BME280;29616;51.950;8.572;2023-02-26T08:08:40;100610.31;;;4.98;100.00
7441;BME280;29616;51.950;8.572;2023-02-26T08:11:08;100621.91;;;5.90;100.00
7441;BME280;29616;51.950;8.572;2023-02-26T08:13:36;100625.84;;;6.09;100.00
7441;BME280;29616;51.950;8.572;2023-02-26T08:16:04;100620.56;;;5.83;100.00
7441;BME280;29616;51.950;8.572;2023-02-26T08:18:36;100638.94;;;6.41;100.00
7441;BME280;29616;51.950;8.572;2023-02-26T08:21:05;100640.56;;;6.43;100.00
7441;BME280;29616;51.950;8.572;2023-02-26T08:23:35;100642.31;;;7.03;100.00
7441;BME280;29616;51.950;8.572;2023-02-26T08:26:07;100644.81;;;6.35;100.00
7441;BME280;29616;51.950;8.572;2023-02-26T08:28:37;100656.28;;;5.89;100.00
7441;BME280;29616;51.950;8.572;2023-02-26T08:31:08;100649.75;;;6.04;100.00
7441;BME280;29616;51.950;8.572;2023-02-26T08:33:38;100663.41;;;6.16;100.00
7441;BME280;29616;51.950;8.572;2023-02-26T08:36:10;100632.28;;;6.08;100.00
7441;BME280;29616;51.950;8.572;2023-02-26T08:38:40;100654.38;;;6.64;100.00
7441;BME280;29616;51.950;8.572;2023-02-26T08:41:09;100673.16;;;6.67;100.00
7441;BME280;29616;51.950;8.572;2023-02-26T08:43:39;100674.81;;;7.28;100.00
7441;BME280;29616;51.950;8.572;2023-02-26T08:46:08;100676.09;;;7.11;100.00
7441;BME280;29616;51.950;8.572;2023-02-26T08:48:39;100667.44;;;5.72;100.00
7441;BME280;29616;51.950;8.572;2023-02-26T08:51:10;100675.81;;;7.03;100.00
7441;BME280;29616;51.950;8.572;2023-02-26T08:53:38;100669.94;;;6.49;100.00
7441;BME280;29616;51.950;8.572;2023-02-26T08:56:08;100693.16;;;7.37;100.00
7441;BME280;29616;51.950;8.572;2023-02-26T08:58:37;100673.69;;;7.30;100.00
7441;BME280;29616;51.950;8.572;2023-02-26T09:01:07;100688.81;;;7.46;100.00
7441;BME280;29616;51.950;8.572;2023-02-26T09:03:35;100686.44;;;6.59;100.00
7441;BME280;29616;51.950;8.572;2023-02-26T09:06:05;100692.06;;;6.92;100.00
7441;BME280;29616;51.950;8.572;2023-02-26T09:08:33;100674.63;;;6.84;100.00
7441;BME280;29616;51.950;8.572;2023-02-26T09:11:03;100714.03;;;7.37;100.00
7441;BME280;29616;51.950;8.572;2023-02-26T09:13:31;100719.22;;;6.68;100.00
7441;BME280;29616;51.950;8.572;2023-02-26T09:16:03;100713.53;;;7.31;100.00
7441;BME280;29616;51.950;8.572;2023-02-26T09:18:33;100729.34;;;7.72;100.00
7441;BME280;29616;51.950;8.572;2023-02-26T09:21:03;100675.56;;;7.87;96.16
7441;BME280;29616;51.950;8.572;2023-02-26T09:23:32;100730.22;;;8.30;92.09
7441;BME280;29616;51.950;8.572;2023-02-26T09:26:02;100728.53;;;7.94;88.96
7441;BME280;29616;51.950;8.572;2023-02-26T09:28:30;100731.41;;;7.58;93.21
7441;BME280;29616;51.950;8.572;2023-02-26T09:31:01;100708.38;;;7.51;88.28
7441;BME280;29616;51.950;8.572;2023-02-26T09:33:31;100740.16;;;8.07;85.28
7441;BME280;29616;51.950;8.572;2023-02-26T09:36:02;100744.38;;;8.00;84.52
7441;BME280;29616;51.950;8.572;2023-02-26T09:38:33;100745.38;;;8.10;83.25
7441;BME280;29616;51.950;8.572;2023-02-26T09:41:06;100749.84;;;7.65;86.17
7441;BME280;29616;51.950;8.572;2023-02-26T09:46:40;100751.31;;;7.34;84.83
7441;BME280;29616;51.950;8.572;2023-02-26T09:49:17;100741.78;;;7.05;87.76
7441;BME280;29616;51.950;8.572;2023-02-26T09:51:49;100754.47;;;5.69;100.00
7441;BME280;29616;51.950;8.572;2023-02-26T09:54:21;100744.19;;;6.73;100.00
7441;BME280;29616;51.950;8.572;2023-02-26T09:56:51;100729.84;;;7.66;88.89
7441;BME280;29616;51.950;8.572;2023-02-26T09:59:21;100766.06;;;7.43;83.34
7441;BME280;29616;51.950;8.572;2023-02-26T10:01:54;100764.59;;;7.74;78.33
7441;BME280;29616;51.950;8.572;2023-02-26T10:04:38;100773.75;;;7.73;78.98
7441;BME280;29616;51.950;8.572;2023-02-26T10:07:18;100751.16;;;7.49;73.09
7441;BME280;29616;51.950;8.572;2023-02-26T10:09:56;100787.94;;;7.65;74.75
7441;BME280;29616;51.950;8.572;2023-02-26T10:12:30;100779.72;;;8.35;68.89
7441;BME280;29616;51.950;8.572;2023-02-26T10:15:03;100773.41;;;7.54;70.94
7441;BME280;29616;51.950;8.572;2023-02-26T10:17:37;100772.47;;;8.01;70.04
7441;BME280;29616;51.950;8.572;2023-02-26T10:20:13;100779.78;;;6.94;68.46
7441;BME280;29616;51.950;8.572;2023-02-26T10:22:47;100767.59;;;7.47;69.42
7441;BME280;29616;51.950;8.572;2023-02-26T10:25:25;100771.97;;;7.61;70.53
7441;BME280;29616;51.950;8.572;2023-02-26T10:27:58;100768.72;;;8.59;65.82
7441;BME280;29616;51.950;8.572;2023-02-26T10:30:33;100778.59;;;8.71;63.04
7441;BME280;29616;51.950;8.572;2023-02-26T10:33:06;100787.91;;;9.44;61.41
7441;BME280;29616;51.950;8.572;2023-02-26T10:35:41;100794.34;;;9.43;60.39
7441;BME280;29616;51.950;8.572;2023-02-26T10:38:15;100785.94;;;9.35;58.07
7441;BME280;29616;51.950;8.572;2023-02-26T10:40:49;100795.31;;;9.42;57.71
7441;BME280;29616;51.950;8.572;2023-02-26T10:43:20;100795.72;;;9.69;57.81
7441;BME280;29616;51.950;8.572;2023-02-26T10:45:57;100806.78;;;9.68;55.85
7441;BME280;29616;51.950;8.572;2023-02-26T10:48:38;100806.31;;;9.63;54.29
7441;BME280;29616;51.950;8.572;2023-02-26T10:51:13;100770.41;;;9.04;54.45
7441;BME280;29616;51.950;8.572;2023-02-26T10:53:44;100795.75;;;9.58;53.42
7441;BME280;29616;51.950;8.572;2023-02-26T10:56:20;100786.75;;;9.58;50.35
7441;BME280;29616;51.950;8.572;2023-02-26T10:58:50;100790.66;;;9.65;50.79
7441;BME280;29616;51.950;8.572;2023-02-26T11:01:21;100800.94;;;9.72;51.64
7441;BME280;29616;51.950;8.572;2023-02-26T11:03:54;100803.41;;;9.75;50.80
7441;BME280;29616;51.950;8.572;2023-02-26T11:06:27;100813.06;;;8.94;52.14
7441;BME280;29616;51.950;8.572;2023-02-26T11:08:59;100823.44;;;9.11;50.98
7441;BME280;29616;51.950;8.572;2023-02-26T11:11:40;100813.53;;;9.10;52.27
7441;BME280;29616;51.950;8.572;2023-02-26T11:14:09;100800.25;;;9.05;50.00
7441;BME280;29616;51.950;8.572;2023-02-26T11:16:45;100803.63;;;8.98;51.19
7441;BME280;29616;51.950;8.572;2023-02-26T11:19:15;100820.72;;;9.54;49.71
7441;BME280;29616;51.950;8.572;2023-02-26T11:21:45;100811.16;;;9.59;50.36
7441;BME280;29616;51.950;8.572;2023-02-26T11:24:18;100795.28;;;9.53;50.74
7441;BME280;29616;51.950;8.572;2023-02-26T11:26:52;100817.81;;;9.66;49.17
7441;BME280;29616;51.950;8.572;2023-02-26T11:29:22;100812.34;;;9.66;49.32
7441;BME280;29616;51.950;8.572;2023-02-26T11:31:53;100818.78;;;9.77;50.38
7441;BME280;29616;51.950;8.572;2023-02-26T11:34:24;100791.06;;;9.60;48.24
7441;BME280;29616;51.950;8.572;2023-02-26T11:36:56;100808.81;;;9.55;49.12
7441;BME280;29616;51.950;8.572;2023-02-26T11:39:28;100806.00;;;9.34;49.25
7441;BME280;29616;51.950;8.572;2023-02-26T11:41:59;100794.59;;;9.40;50.05
7441;BME280;29616;51.950;8.572;2023-02-26T11:44:33;100792.59;;;9.42;49.66
7441;BME280;29616;51.950;8.572;2023-02-26T11:47:04;100804.81;;;9.91;50.79
7441;BME280;29616;51.950;8.572;2023-02-26T11:49:34;100817.03;;;10.07;49.48
7441;BME280;29616;51.950;8.572;2023-02-26T11:52:20;100777.91;;;10.07;49.89
7441;BME280;29616;51.950;8.572;2023-02-26T11:54:49;100800.34;;;10.52;48.43
7441;BME280;29616;51.950;8.572;2023-02-26T11:57:22;100801.47;;;10.19;50.10
7441;BME280;29616;51.950;8.572;2023-02-26T11:59:53;100788.56;;;10.10;48.49
7441;BME280;29616;51.950;8.572;2023-02-26T12:02:24;100811.84;;;10.25;48.81
7441;BME280;29616;51.950;8.572;2023-02-26T12:05:00;100808.13;;;9.73;48.57
7441;BME280;29616;51.950;8.572;2023-02-26T12:07:31;100811.06;;;9.82;49.31
7441;BME280;29616;51.950;8.572;2023-02-26T12:10:00;100797.34;;;10.24;48.92
7441;BME280;29616;51.950;8.572;2023-02-26T12:12:36;100811.22;;;10.63;47.99
7441;BME280;29616;51.950;8.572;2023-02-26T12:15:21;100807.75;;;10.61;46.98
7441;BME280;29616;51.950;8.572;2023-02-26T12:18:12;100802.41;;;10.59;47.33
7441;BME280;29616;51.950;8.572;2023-02-26T12:20:46;100785.56;;;10.84;48.83
7441;BME280;29616;51.950;8.572;2023-02-26T12:23:30;100803.34;;;10.69;49.67
7441;BME280;29616;51.950;8.572;2023-02-26T12:26:11;100813.19;;;10.30;49.75
7441;BME280;29616;51.950;8.572;2023-02-26T12:28:49;100812.31;;;10.30;49.90
7441;BME280;29616;51.950;8.572;2023-02-26T12:31:35;100818.59;;;9.89;48.78
7441;BME280;29616;51.950;8.572;2023-02-26T12:34:23;100807.13;;;9.74;49.21
7441;BME280;29616;51.950;8.572;2023-02-26T12:37:06;100814.78;;;10.12;47.92
7441;BME280;29616;51.950;8.572;2023-02-26T12:39:45;100806.88;;;9.98;46.86
7441;BME280;29616;51.950;8.572;2023-02-26T12:42:25;100811.44;;;9.77;46.47
7441;BME280;29616;51.950;8.572;2023-02-26T12:45:12;100827.28;;;9.94;46.91
7441;BME280;29616;51.950;8.572;2023-02-26T12:47:53;100820.59;;;10.19;46.90
7441;BME280;29616;51.950;8.572;2023-02-26T12:50:28;100799.06;;;10.25;48.15
7441;BME280;29616;51.950;8.572;2023-02-26T12:53:20;100815.03;;;11.21;46.79
7441;BME280;29616;51.950;8.572;2023-02-26T12:56:01;100823.84;;;10.84;47.12
7441;BME280;29616;51.950;8.572;2023-02-26T12:58:44;100833.19;;;11.22;46.47
7441;BME280;29616;51.950;8.572;2023-02-26T13:01:34;100810.72;;;11.18;47.51
7441;BME280;29616;51.950;8.572;2023-02-26T13:04:21;100821.91;;;9.29;50.19
7441;BME280;29616;51.950;8.572;2023-02-26T13:07:00;100833.75;;;8.06;53.39
7441;BME280;29616;51.950;8.572;2023-02-26T13:09:41;100806.69;;;7.10;53.88
7441;BME280;29616;51.950;8.572;2023-02-26T13:12:25;100799.88;;;7.28;57.75
7441;BME280;29616;51.950;8.572;2023-02-26T13:15:00;100827.41;;;9.18;53.50
7441;BME280;29616;51.950;8.572;2023-02-26T13:17:33;100826.31;;;10.16;52.59
7441;BME280;29616;51.950;8.572;2023-02-26T13:20:10;100802.41;;;10.59;50.73
7441;BME280;29616;51.950;8.572;2023-02-26T13:22:43;100829.38;;;10.43;50.10
7441;BME280;29616;51.950;8.572;2023-02-26T13:25:17;100832.91;;;10.13;50.25
7441;BME280;29616;51.950;8.572;2023-02-26T13:27:47;100828.56;;;10.11;49.44
7441;BME280;29616;51.950;8.572;2023-02-26T13:30:21;100796.41;;;10.65;48.76